Time;durP1;ratioP1;P1;durP2;ratioP2;P2;SDS_P1;SDS_P2;PMS_P1;PMS_P2;Temp;Humidity;BMP_temperature;BMP_pressure;BME280_temperature;BME280_humidity;BME280_pressure;Samples;Min_cycle;Max_cycle;Signal;HPM_P1;HPM_P2
2021/05/21 00:02:12;;;;;;;;;;;19.90;59.70;;;;;;4997063;28;1093;-71
2021/05/21 00:04:37;;;;;;;;;;;19.90;59.70;;;;;;5014528;28;1083;-71
2021/05/21 00:07:02;;;;;;;;;;;19.90;59.70;;;;;;5013235;28;1203;-70
2021/05/21 00:09:28;;;;;;;;;;;19.90;59.70;;;;;;5014438;28;1180;-71
2021/05/21 00:11:53;;;;;;;;;;;19.90;59.70;;;;;;5014467;28;1053;-71
2021/05/21 00:14:19;;;;;;;;;;;19.90;59.80;;;;;;5014302;28;1145;-70
2021/05/21 00:16:44;;;;;;;;;;;19.90;59.80;;;;;;5014021;28;1778;-71
2021/05/21 00:19:10;;;;;;;;;;;19.90;59.80;;;;;;5014104;28;1906;-72
2021/05/21 00:21:35;;;;;;;;;;;19.90;60.00;;;;;;4996492;28;1128;-70
2021/05/21 00:24:01;;;;;;;;;;;19.90;59.80;;;;;;4996642;28;1133;-71
2021/05/21 00:26:26;;;;;;;;;;;19.90;59.80;;;;;;4996299;28;1124;-71
2021/05/21 00:28:52;;;;;;;;;;;19.90;59.80;;;;;;5014007;28;1379;-71
2021/05/21 00:31:17;;;;;;;;;;;19.80;59.80;;;;;;5014220;28;1160;-71
2021/05/21 00:33:43;;;;;;;;;;;19.80;59.80;;;;;;5013935;28;1101;-71
2021/05/21 00:36:08;;;;;;;;;;;19.90;59.90;;;;;;5013764;28;1073;-70
2021/05/21 00:38:33;;;;;;;;;;;19.90;59.90;;;;;;5013749;28;1910;-71
2021/05/21 00:40:59;;;;;;;;;;;19.80;59.90;;;;;;5014016;28;1096;-71
2021/05/21 00:43:25;;;;;;;;;;;19.80;59.90;;;;;;4996401;28;1137;-71
2021/05/21 00:45:50;;;;;;;;;;;19.80;59.90;;;;;;5013589;28;1120;-71
2021/05/21 00:48:16;;;;;;;;;;;19.80;59.90;;;;;;5013696;28;1258;-71
2021/05/21 00:50:41;;;;;;;;;;;19.80;60.00;;;;;;5013541;28;1096;-71
2021/05/21 00:53:07;;;;;;;;;;;19.80;60.00;;;;;;5013622;28;1206;-71
2021/05/21 00:55:32;;;;;;;;;;;19.80;60.00;;;;;;4995846;28;1062;-72
2021/05/21 00:57:58;;;;;;;;;;;19.80;60.00;;;;;;4994622;28;1978;-71
2021/05/21 01:00:23;;;;;;;;;;;19.80;60.00;;;;;;4994010;28;808;-70
2021/05/21 01:02:48;;;;;;;;;;;19.80;60.00;;;;;;5010325;28;978;-71
2021/05/21 01:05:14;;;;;;;;;;;19.80;60.00;;;;;;5013003;28;1108;-71
2021/05/21 01:07:39;;;;;;;;;;;19.80;60.00;;;;;;5013321;28;1268;-71
2021/05/21 01:10:05;;;;;;;;;;;19.80;60.10;;;;;;5013492;28;978;-71
2021/05/21 01:12:30;;;;;;;;;;;19.80;60.10;;;;;;5013265;28;1088;-71
2021/05/21 01:14:56;;;;;;;;;;;19.80;60.10;;;;;;4995581;28;1120;-71
2021/05/21 01:17:21;;;;;;;;;;;19.80;60.10;;;;;;5013152;28;1280;-71
2021/05/21 01:19:47;;;;;;;;;;;19.80;60.10;;;;;;4993376;28;1902;-71
2021/05/21 01:22:13;;;;;;;;;;;19.80;60.20;;;;;;5010809;28;1109;-71
2021/05/21 01:24:38;;;;;;;;;;;19.80;60.20;;;;;;5013003;28;1053;-71
2021/05/21 01:27:04;;;;;;;;;;;19.80;60.20;;;;;;5012938;28;1373;-71
2021/05/21 01:29:30;;;;;;;;;;;19.80;60.20;;;;;;5013215;28;1199;-71
2021/05/21 01:31:55;;;;;;;;;;;19.80;60.20;;;;;;4995703;28;1109;-71
2021/05/21 01:34:21;;;;;;;;;;;19.80;61.00;;;;;;5013273;28;1065;-71
2021/05/21 01:36:47;;;;;;;;;;;19.80;60.20;;;;;;5012836;28;1398;-71
2021/05/21 01:39:13;;;;;;;;;;;19.80;60.30;;;;;;4995945;28;1918;-70
2021/05/21 01:41:38;;;;;;;;;;;19.80;60.30;;;;;;5012994;28;1139;-71
2021/05/21 01:44:04;;;;;;;;;;;19.80;60.30;;;;;;5013208;28;1135;-71
2021/05/21 01:46:30;;;;;;;;;;;19.70;60.30;;;;;;5012997;28;1073;-71
2021/05/21 01:48:55;;;;;;;;;;;19.80;60.40;;;;;;5012818;28;1225;-71
2021/05/21 01:51:21;;;;;;;;;;;19.80;60.40;;;;;;5012925;28;1112;-70
2021/05/21 01:53:49;;;;;;;;;;;19.80;60.40;;;;;;5012939;28;1151;-71
2021/05/21 01:56:14;;;;;;;;;;;19.80;60.40;;;;;;5012547;28;1124;-71
2021/05/21 01:58:40;;;;;;;;;;;19.80;60.50;;;;;;4995322;28;1898;-71
2021/05/21 02:01:05;;;;;;;;;;;19.80;60.50;;;;;;5012809;28;1113;-71
2021/05/21 02:03:31;;;;;;;;;;;19.70;61.20;;;;;;5012832;28;1076;-71
2021/05/21 02:05:56;;;;;;;;;;;19.70;60.40;;;;;;5012558;28;1113;-71
2021/05/21 02:08:23;;;;;;;;;;;19.70;60.40;;;;;;4995280;28;1216;-70
2021/05/21 02:10:48;;;;;;;;;;;19.70;60.40;;;;;;5012682;28;1088;-71
2021/05/21 02:13:14;;;;;;;;;;;19.80;60.50;;;;;;4995367;28;1093;-71
2021/05/21 02:15:39;;;;;;;;;;;19.80;60.50;;;;;;5012300;28;1168;-71
2021/05/21 02:18:05;;;;;;;;;;;19.80;60.50;;;;;;5012471;28;1960;-71
2021/05/21 02:20:30;;;;;;;;;;;19.80;60.60;;;;;;5012592;28;1084;-71
2021/05/21 02:22:55;;;;;;;;;;;19.80;60.50;;;;;;5012658;28;1201;-71
2021/05/21 02:25:21;;;;;;;;;;;19.70;60.50;;;;;;4994876;28;1163;-71
2021/05/21 02:27:46;;;;;;;;;;;19.80;60.60;;;;;;5012910;28;1355;-70
2021/05/21 02:30:12;;;;;;;;;;;19.70;60.50;;;;;;5013437;28;1152;-71
2021/05/21 02:32:40;;;;;;;;;;;19.70;60.60;;;;;;5016132;28;1061;-71
2021/05/21 02:35:06;;;;;;;;;;;19.70;60.60;;;;;;5015969;28;1124;-71
2021/05/21 02:37:32;;;;;;;;;;;19.70;60.60;;;;;;5016458;28;1277;-71
2021/05/21 02:39:57;;;;;;;;;;;19.80;60.70;;;;;;5016047;28;2250;-71
2021/05/21 02:42:23;;;;;;;;;;;19.80;60.70;;;;;;4998798;28;1396;-71
2021/05/21 02:44:48;;;;;;;;;;;19.70;60.70;;;;;;5015697;28;1068;-71
2021/05/21 02:47:13;;;;;;;;;;;19.70;60.70;;;;;;5015602;28;1274;-71
2021/05/21 02:49:39;;;;;;;;;;;19.70;60.70;;;;;;5016078;28;1080;-70
2021/05/21 02:52:04;;;;;;;;;;;19.80;60.80;;;;;;5015937;28;1057;-72
2021/05/21 02:54:30;;;;;;;;;;;19.80;60.80;;;;;;5016366;28;1084;-71
2021/05/21 02:56:55;;;;;;;;;;;19.70;60.80;;;;;;5015517;28;1284;-70
2021/05/21 02:59:21;;;;;;;;;;;19.70;60.80;;;;;;5005150;28;1959;-71
2021/05/21 03:01:46;;;;;;;;;;;19.70;60.80;;;;;;5015537;28;1092;-71
2021/05/21 03:04:11;;;;;;;;;;;19.70;60.80;;;;;;5015684;28;1195;-70
2021/05/21 03:06:37;;;;;;;;;;;19.70;60.80;;;;;;4997976;28;1128;-70
2021/05/21 03:09:03;;;;;;;;;;;19.70;60.80;;;;;;5015569;28;1249;-71
2021/05/21 03:11:28;;;;;;;;;;;19.70;60.80;;;;;;5015534;28;1081;-71
2021/05/21 03:13:53;;;;;;;;;;;19.70;60.80;;;;;;5015453;28;1053;-71
2021/05/21 03:16:19;;;;;;;;;;;19.70;60.80;;;;;;5014950;28;1073;-71
2021/05/21 03:18:44;;;;;;;;;;;19.70;60.90;;;;;;5015439;28;1973;-71
2021/05/21 03:21:10;;;;;;;;;;;19.70;60.90;;;;;;5015336;28;1196;-71
2021/05/21 03:23:35;;;;;;;;;;;19.70;60.90;;;;;;5015455;28;1064;-71
2021/05/21 03:26:01;;;;;;;;;;;19.70;60.90;;;;;;4997379;28;1053;-71
2021/05/21 03:28:26;;;;;;;;;;;19.70;60.90;;;;;;5015038;28;1385;-71
2021/05/21 03:30:52;;;;;;;;;;;19.70;60.90;;;;;;4997627;28;1081;-71
2021/05/21 03:33:17;;;;;;;;;;;19.70;61.00;;;;;;5015054;28;1097;-71
2021/05/21 03:35:43;;;;;;;;;;;19.70;60.90;;;;;;5014965;28;1081;-71
2021/05/21 03:38:08;;;;;;;;;;;19.70;60.90;;;;;;5015024;28;1922;-71
2021/05/21 03:40:34;;;;;;;;;;;19.70;60.60;;;;;;5015188;28;1143;-71
2021/05/21 03:42:59;;;;;;;;;;;19.70;60.60;;;;;;5015066;28;1061;-71
2021/05/21 03:45:25;;;;;;;;;;;19.70;60.50;;;;;;5014952;28;1076;-71
2021/05/21 03:47:50;;;;;;;;;;;19.80;60.60;;;;;;5014714;28;1224;-71
2021/05/21 03:50:19;;;;;;;;;;;19.80;60.50;;;;;;5014904;28;1093;-70
2021/05/21 03:52:44;;;;;;;;;;;19.90;60.40;;;;;;4997555;28;1096;-71
2021/05/21 03:55:10;;;;;;;;;;;20.00;60.20;;;;;;5014625;28;1081;-70
2021/05/21 03:57:36;;;;;;;;;;;20.10;60.10;;;;;;5014513;28;1371;-71
2021/05/21 04:00:02;;;;;;;;;;;20.20;59.80;;;;;;5007249;28;1954;-70
2021/05/21 04:02:28;;;;;;;;;;;20.30;59.70;;;;;;5014514;28;1056;-71
2021/05/21 04:04:53;;;;;;;;;;;20.40;59.50;;;;;;5014366;28;1152;-71
2021/05/21 04:07:18;;;;;;;;;;;20.40;59.30;;;;;;5014319;28;1294;-71
2021/05/21 04:09:44;;;;;;;;;;;20.50;59.20;;;;;;5014657;28;1129;-71
2021/05/21 04:12:09;;;;;;;;;;;20.50;59.00;;;;;;4996777;28;1172;-70
2021/05/21 04:14:35;;;;;;;;;;;20.60;58.90;;;;;;5014203;28;1166;-71
2021/05/21 04:17:00;;;;;;;;;;;20.60;58.70;;;;;;5014058;28;1263;-71
2021/05/21 04:19:26;;;;;;;;;;;20.70;59.20;;;;;;5014559;28;1907;-71
2021/05/21 04:21:51;;;;;;;;;;;20.70;58.50;;;;;;5014062;28;1152;-71
2021/05/21 04:24:16;;;;;;;;;;;20.80;58.50;;;;;;5014437;28;1057;-71
2021/05/21 04:26:42;;;;;;;;;;;20.80;58.30;;;;;;4996255;28;1096;-71
2021/05/21 04:29:07;;;;;;;;;;;20.90;58.30;;;;;;5013977;28;1306;-71
2021/05/21 04:31:33;;;;;;;;;;;20.90;58.20;;;;;;5013816;28;1080;-71
2021/05/21 04:33:58;;;;;;;;;;;20.90;58.10;;;;;;4996596;28;1140;-71
2021/05/21 04:36:24;;;;;;;;;;;21.00;58.10;;;;;;5013702;28;1140;-71
2021/05/21 04:38:49;;;;;;;;;;;21.00;58.00;;;;;;5013857;28;1965;-70
2021/05/21 04:41:15;;;;;;;;;;;21.00;58.00;;;;;;5014224;28;1089;-71
2021/05/21 04:43:40;;;;;;;;;;;21.10;58.00;;;;;;5013894;28;1064;-70
2021/05/21 04:46:06;;;;;;;;;;;21.10;57.90;;;;;;5013471;28;1061;-70
2021/05/21 04:48:32;;;;;;;;;;;21.10;57.90;;;;;;5013938;28;1332;-71
2021/05/21 04:50:57;;;;;;;;;;;21.10;57.90;;;;;;4996198;28;1081;-71
2021/05/21 04:53:23;;;;;;;;;;;21.20;57.90;;;;;;5013101;28;1191;-71
2021/05/21 04:55:48;;;;;;;;;;;21.20;57.80;;;;;;4995875;28;1129;-71
2021/05/21 04:58:14;;;;;;;;;;;21.20;57.70;;;;;;4995996;28;1959;-70
2021/05/21 05:00:40;;;;;;;;;;;21.20;57.70;;;;;;5013600;28;1124;-71
2021/05/21 05:03:06;;;;;;;;;;;21.20;57.70;;;;;;5013527;28;1163;-71
2021/05/21 05:05:31;;;;;;;;;;;21.30;57.70;;;;;;4985322;28;1436;-71
2021/05/21 05:07:57;;;;;;;;;;;21.20;57.60;;;;;;4994792;28;1204;-71
2021/05/21 05:10:22;;;;;;;;;;;21.30;57.60;;;;;;5013541;28;1159;-71
2021/05/21 05:12:48;;;;;;;;;;;21.30;57.60;;;;;;5013329;28;1105;-71
2021/05/21 05:15:13;;;;;;;;;;;21.30;57.60;;;;;;5013009;28;1242;-71
2021/05/21 05:17:38;;;;;;;;;;;21.30;57.60;;;;;;5013291;28;1282;-71
2021/05/21 05:20:04;;;;;;;;;;;21.30;57.60;;;;;;5013153;28;1898;-72
2021/05/21 05:22:32;;;;;;;;;;;21.40;57.60;;;;;;4995527;28;1554;-72
2021/05/21 05:24:58;;;;;;;;;;;21.40;57.60;;;;;;5013107;28;1037;-72
2021/05/21 05:27:23;;;;;;;;;;;21.30;57.40;;;;;;5012950;28;1358;-72
2021/05/21 05:29:51;;;;;;;;;;;21.30;56.50;;;;;;5013127;28;1093;-73
2021/05/21 05:32:17;;;;;;;;;;;21.30;55.80;;;;;;5013054;28;1133;-72
2021/05/21 05:34:42;;;;;;;;;;;21.20;55.20;;;;;;4995438;28;1077;-72
2021/05/21 05:37:08;;;;;;;;;;;21.20;54.90;;;;;;5013013;28;1252;-71
2021/05/21 05:39:33;;;;;;;;;;;21.10;54.70;;;;;;4995384;28;1902;-72
2021/05/21 05:41:58;;;;;;;;;;;21.10;54.70;;;;;;5012935;28;1164;-71
2021/05/21 05:44:24;;;;;;;;;;;21.10;54.50;;;;;;5012726;28;1049;-72
2021/05/21 05:46:49;;;;;;;;;;;21.00;54.20;;;;;;5012807;28;1212;-72
2021/05/21 05:49:15;;;;;;;;;;;21.00;54.30;;;;;;5007803;28;1811;-72
2021/05/21 05:51:40;;;;;;;;;;;20.90;54.20;;;;;;5007756;28;1779;-72
2021/05/21 05:54:06;;;;;;;;;;;20.90;54.20;;;;;;4990064;28;1366;-73
2021/05/21 05:56:31;;;;;;;;;;;20.90;54.30;;;;;;5020731;28;1092;-73
2021/05/21 05:58:57;;;;;;;;;;;20.80;53.90;;;;;;5013612;28;1890;-73
2021/05/21 06:01:22;;;;;;;;;;;20.80;53.90;;;;;;4995455;28;1184;-72
2021/05/21 06:03:47;;;;;;;;;;;20.80;53.90;;;;;;5012775;28;1064;-72
2021/05/21 06:06:13;;;;;;;;;;;20.80;53.60;;;;;;5015773;28;1124;-73
2021/05/21 06:08:38;;;;;;;;;;;20.70;53.70;;;;;;5016742;28;1242;-73
2021/05/21 06:11:04;;;;;;;;;;;20.70;53.80;;;;;;4995032;28;1152;-72
2021/05/21 06:13:29;;;;;;;;;;;20.70;53.70;;;;;;4991175;28;1997;-73
2021/05/21 06:15:55;;;;;;;;;;;20.70;53.70;;;;;;5016493;28;1194;-73
2021/05/21 06:18:20;;;;;;;;;;;20.60;53.40;;;;;;4999288;28;1910;-73
2021/05/21 06:20:45;;;;;;;;;;;20.60;52.80;;;;;;4995342;28;1183;-71
2021/05/21 06:23:11;;;;;;;;;;;20.60;52.30;;;;;;4999091;28;1152;-70
2021/05/21 06:25:54;;;;;;;;;;;20.60;52.20;;;;;;4992789;28;1897;-71
2021/05/21 06:28:22;;;;;;;;;;;20.50;52.50;;;;;;5015474;28;1397;-71
2021/05/21 06:30:48;;;;;;;;;;;20.60;52.90;;;;;;5016594;28;1127;-71
2021/05/21 06:33:13;;;;;;;;;;;20.50;53.20;;;;;;5016576;28;1064;-71
2021/05/21 06:35:38;;;;;;;;;;;20.60;53.50;;;;;;5016456;28;1140;-71
2021/05/21 06:38:04;;;;;;;;;;;20.60;53.70;;;;;;5016341;28;1278;-71
2021/05/21 06:40:29;;;;;;;;;;;20.60;54.00;;;;;;5016358;28;1906;-72
2021/05/21 06:42:55;;;;;;;;;;;20.60;54.20;;;;;;5016016;28;1120;-71
2021/05/21 06:45:20;;;;;;;;;;;20.60;54.40;;;;;;5016062;28;1144;-71
2021/05/21 06:47:46;;;;;;;;;;;20.60;54.50;;;;;;4998442;28;1292;-67
2021/05/21 06:50:11;;;;;;;;;;;20.60;54.80;;;;;;5016206;28;1156;-67
2021/05/21 06:52:37;;;;;;;;;;;20.50;54.80;;;;;;5015830;28;1109;-68
2021/05/21 06:55:03;;;;;;;;;;;20.60;55.10;;;;;;5015460;28;1105;-68
2021/05/21 06:57:28;;;;;;;;;;;20.50;55.10;;;;;;5015767;28;1273;-70
2021/05/21 06:59:53;;;;;;;;;;;20.50;55.30;;;;;;5004649;28;1895;-70
2021/05/21 07:02:20;;;;;;;;;;;20.50;55.40;;;;;;5015616;28;1028;-69
2021/05/21 07:04:46;;;;;;;;;;;20.50;55.50;;;;;;4997828;28;1191;-70
2021/05/21 07:07:11;;;;;;;;;;;20.50;55.80;;;;;;5012457;28;1277;-70
2021/05/21 07:09:37;;;;;;;;;;;20.50;56.40;;;;;;5015018;28;1164;-70
2021/05/21 07:12:02;;;;;;;;;;;20.50;57.10;;;;;;5015126;28;1216;-70
2021/05/21 07:14:28;;;;;;;;;;;20.50;57.40;;;;;;4997330;28;1193;-70
2021/05/21 07:16:53;;;;;;;;;;;20.50;57.60;;;;;;4994065;28;1281;-70
2021/05/21 07:19:18;;;;;;;;;;;20.60;57.60;;;;;;5014133;28;1902;-70
2021/05/21 07:21:47;;;;;;;;;;;20.50;57.80;;;;;;5014207;28;1284;-70
2021/05/21 07:24:12;;;;;;;;;;;20.50;57.90;;;;;;4991568;28;1343;-70
2021/05/21 07:26:39;;;;;;;;;;;20.60;57.90;;;;;;4994358;28;1114;-70
2021/05/21 07:29:04;;;;;;;;;;;20.60;58.10;;;;;;5013675;28;1252;-70
2021/05/21 07:31:30;;;;;;;;;;;20.60;58.10;;;;;;4996514;28;1269;-70
2021/05/21 07:33:56;;;;;;;;;;;20.60;58.20;;;;;;5012337;28;1217;-69
2021/05/21 07:36:23;;;;;;;;;;;20.60;58.30;;;;;;5014269;28;1402;-70
2021/05/21 07:38:49;;;;;;;;;;;20.60;58.50;;;;;;4997650;28;1902;-69
2021/05/21 07:41:14;;;;;;;;;;;20.60;58.30;;;;;;4997922;28;1656;-70
2021/05/21 07:43:40;;;;;;;;;;;20.60;58.40;;;;;;5015175;28;804;-70
2021/05/21 07:46:05;;;;;;;;;;;20.60;58.50;;;;;;5014942;28;1381;-69
2021/05/21 07:48:31;;;;;;;;;;;20.60;58.50;;;;;;5014909;28;1699;-69
2021/05/21 07:50:56;;;;;;;;;;;20.60;58.60;;;;;;4997410;28;1386;-69
2021/05/21 07:53:22;;;;;;;;;;;20.60;58.60;;;;;;4981270;28;1697;-70
2021/05/21 07:55:50;;;;;;;;;;;20.60;58.70;;;;;;5014676;28;1461;-70
2021/05/21 07:58:15;;;;;;;;;;;20.60;58.70;;;;;;5011157;28;1894;-70
2021/05/21 08:00:42;;;;;;;;;;;20.60;58.80;;;;;;5008412;28;1625;-70
2021/05/21 08:03:08;;;;;;;;;;;20.60;58.90;;;;;;5014871;28;1381;-70
2021/05/21 08:05:33;;;;;;;;;;;20.60;58.90;;;;;;5014474;28;1373;-70
2021/05/21 08:07:59;;;;;;;;;;;20.60;59.00;;;;;;5014765;28;1729;-70
2021/05/21 08:10:24;;;;;;;;;;;20.60;59.10;;;;;;5014787;28;1581;-69
2021/05/21 08:12:49;;;;;;;;;;;20.60;59.10;;;;;;5015484;28;1417;-69
2021/05/21 08:15:15;;;;;;;;;;;20.60;59.10;;;;;;5014695;28;1472;-69
2021/05/21 08:17:40;;;;;;;;;;;20.60;59.20;;;;;;5014405;28;1727;-70
2021/05/21 08:20:06;;;;;;;;;;;20.60;59.30;;;;;;4992694;28;1898;-69
2021/05/21 08:22:32;;;;;;;;;;;20.60;59.30;;;;;;4976866;28;1710;-70
2021/05/21 08:24:57;;;;;;;;;;;20.60;59.40;;;;;;5007043;28;1597;-70
2021/05/21 08:27:22;;;;;;;;;;;20.60;60.10;;;;;;5013607;28;1745;-70
2021/05/21 08:29:48;;;;;;;;;;;20.50;59.50;;;;;;5014328;28;1107;-70
2021/05/21 08:32:13;;;;;;;;;;;20.60;59.60;;;;;;5014018;28;1056;-70
2021/05/21 08:34:39;;;;;;;;;;;20.60;59.80;;;;;;5013899;28;1065;-70
2021/05/21 08:37:04;;;;;;;;;;;20.60;59.90;;;;;;5013745;28;1275;-69
2021/05/21 08:39:30;;;;;;;;;;;20.50;59.90;;;;;;5013872;28;1963;-69
2021/05/21 08:41:55;;;;;;;;;;;20.60;60.00;;;;;;5013781;28;1105;-69
2021/05/21 08:44:21;;;;;;;;;;;20.60;59.90;;;;;;4993786;28;2107;-71
2021/05/21 08:46:46;;;;;;;;;;;20.60;59.90;;;;;;5008041;28;1342;-71
2021/05/21 08:49:12;;;;;;;;;;;20.60;60.10;;;;;;5013550;28;1104;-71
2021/05/21 08:51:37;;;;;;;;;;;20.60;60.10;;;;;;4996049;28;1180;-71
2021/05/21 08:54:05;;;;;;;;;;;20.60;60.10;;;;;;5013537;28;1132;-71
2021/05/21 08:56:32;;;;;;;;;;;20.60;60.20;;;;;;5013161;28;1089;-71
2021/05/21 08:58:58;;;;;;;;;;;20.50;60.20;;;;;;5004044;28;1894;-70
2021/05/21 09:01:26;;;;;;;;;;;20.50;60.30;;;;;;5012571;28;1196;-71
2021/05/21 09:04:00;;;;;;;;;;;20.50;60.30;;;;;;4985375;28;1525;-71
2021/05/21 09:06:26;;;;;;;;;;;20.50;60.30;;;;;;4986957;28;2264;-71
2021/05/21 09:08:55;;;;;;;;;;;20.50;60.40;;;;;;5013545;28;1681;-71
2021/05/21 09:11:34;;;;;;;;;;;20.50;60.50;;;;;;4996097;28;1707;-71
2021/05/21 09:14:00;;;;;;;;;;;20.50;60.60;;;;;;5008800;28;1718;-71
2021/05/21 09:16:26;;;;;;;;;;;20.50;60.60;;;;;;5013202;28;1728;-70
2021/05/21 09:18:58;;;;;;;;;;;20.50;60.80;;;;;;4979323;28;1967;-70
2021/05/21 09:21:23;;;;;;;;;;;20.50;60.90;;;;;;5009917;28;1976;-70
2021/05/21 09:24:02;;;;;;;;;;;20.50;61.00;;;;;;5012275;28;1308;-71
2021/05/21 09:26:38;;;;;;;;;;;20.50;61.00;;;;;;4971592;28;1607;-73
2021/05/21 09:29:03;;;;;;;;;;;20.50;61.00;;;;;;5012943;28;1273;-69
2021/05/21 09:31:28;;;;;;;;;;;20.50;61.20;;;;;;5001296;28;2251;-68
2021/05/21 09:33:54;;;;;;;;;;;20.50;61.10;;;;;;5007746;28;1084;-68
2021/05/21 09:36:26;;;;;;;;;;;20.50;61.20;;;;;;5011009;28;1156;-70
2021/05/21 09:38:54;;;;;;;;;;;20.50;61.20;;;;;;4993822;28;1914;-70
2021/05/21 09:41:20;;;;;;;;;;;20.50;61.30;;;;;;4994878;28;1121;-67
2021/05/21 09:43:55;;;;;;;;;;;20.50;61.30;;;;;;4994105;28;1132;-67
2021/05/21 09:46:20;;;;;;;;;;;20.50;61.40;;;;;;4994384;28;1053;-68
2021/05/21 09:48:47;;;;;;;;;;;20.50;61.50;;;;;;5011600;28;1357;-70
2021/05/21 09:51:12;;;;;;;;;;;20.50;61.60;;;;;;5011888;28;1220;-70
2021/05/21 09:53:38;;;;;;;;;;;20.50;61.60;;;;;;4994349;28;1089;-69
2021/05/21 09:56:04;;;;;;;;;;;20.50;61.70;;;;;;5011862;28;1044;-69
2021/05/21 09:58:31;;;;;;;;;;;20.50;61.70;;;;;;5005945;28;1910;-69
2021/05/21 10:01:05;;;;;;;;;;;20.50;61.70;;;;;;4987691;28;1172;-71
2021/05/21 10:03:31;;;;;;;;;;;20.50;61.80;;;;;;5011604;28;1112;-69
2021/05/21 10:05:57;;;;;;;;;;;20.50;61.80;;;;;;5011788;28;1159;-69
2021/05/21 10:08:22;;;;;;;;;;;20.50;61.90;;;;;;5012029;28;1223;-69
2021/05/21 10:10:47;;;;;;;;;;;20.50;61.90;;;;;;5011846;28;1080;-69
2021/05/21 10:13:13;;;;;;;;;;;20.40;62.00;;;;;;5003811;28;1723;-69
2021/05/21 10:15:38;;;;;;;;;;;20.50;62.00;;;;;;5009521;28;1206;-69
2021/05/21 10:18:05;;;;;;;;;;;20.40;62.00;;;;;;5010502;28;1303;-68
2021/05/21 10:20:30;;;;;;;;;;;20.40;62.00;;;;;;5007265;28;1903;-68
2021/05/21 10:22:56;;;;;;;;;;;20.40;62.10;;;;;;4993642;28;1182;-68
2021/05/21 10:25:24;;;;;;;;;;;20.40;62.20;;;;;;4992931;28;1155;-68
2021/05/21 10:27:51;;;;;;;;;;;20.40;62.10;;;;;;4992732;28;1306;-68
2021/05/21 10:30:16;;;;;;;;;;;20.40;62.30;;;;;;4992216;28;1947;-68
2021/05/21 10:32:42;;;;;;;;;;;20.40;62.30;;;;;;5008163;28;1133;-68
2021/05/21 10:35:15;;;;;;;;;;;20.40;62.30;;;;;;4992249;28;1100;-68
2021/05/21 10:37:40;;;;;;;;;;;20.40;62.30;;;;;;5011035;28;1285;-70
2021/05/21 10:40:09;;;;;;;;;;;20.40;62.40;;;;;;4993078;28;1969;-70
2021/05/21 10:42:36;;;;;;;;;;;20.40;62.40;;;;;;5010734;28;1037;-67
2021/05/21 10:45:12;;;;;;;;;;;20.40;62.40;;;;;;5010167;28;1175;-67
2021/05/21 10:47:38;;;;;;;;;;;20.40;62.40;;;;;;4993082;28;1224;-68
2021/05/21 10:50:04;;;;;;;;;;;20.40;62.40;;;;;;4993360;28;1211;-68
2021/05/21 10:52:48;;;;;;;;;;;20.40;62.40;;;;;;5013218;28;1135;-68
2021/05/21 10:55:13;;;;;;;;;;;20.40;62.40;;;;;;5002391;28;1053;-67
2021/05/21 10:57:39;;;;;;;;;;;20.40;62.40;;;;;;4994619;28;1354;-71
2021/05/21 11:00:05;;;;;;;;;;;20.40;62.40;;;;;;5004826;28;1962;-70
2021/05/21 11:02:43;;;;;;;;;;;20.40;62.40;;;;;;5015350;28;1320;-70
2021/05/21 11:05:24;;;;;;;;;;;20.50;62.50;;;;;;5014636;28;1084;-70
2021/05/21 11:08:10;;;;;;;;;;;20.50;62.50;;;;;;5015650;28;1268;-70
2021/05/21 11:10:35;;;;;;;;;;;20.40;62.50;;;;;;5011800;28;1164;-70
2021/05/21 11:13:02;;;;;;;;;;;20.40;62.60;;;;;;5015526;28;1057;-70
2021/05/21 11:15:33;;;;;;;;;;;20.40;62.60;;;;;;5015111;28;1092;-70
2021/05/21 11:18:10;;;;;;;;;;;20.50;62.80;;;;;;5015297;28;1279;-70
2021/05/21 11:20:54;;;;;;;;;;;20.50;62.80;;;;;;5013681;28;1960;-70
2021/05/21 11:23:26;;;;;;;;;;;20.50;62.80;;;;;;5014482;28;1184;-69
2021/05/21 11:26:21;;;;;;;;;;;20.50;62.70;;;;;;5010387;28;1311;-69
2021/05/21 11:28:50;;;;;;;;;;;20.50;62.70;;;;;;4998766;28;1344;-69
2021/05/21 11:31:21;;;;;;;;;;;20.50;62.70;;;;;;5015343;28;1076;-69
2021/05/21 11:33:48;;;;;;;;;;;20.50;62.60;;;;;;5014667;28;1127;-69
2021/05/21 11:36:14;;;;;;;;;;;20.50;62.90;;;;;;5008874;28;1621;-67
2021/05/21 11:38:39;;;;;;;;;;;20.50;63.60;;;;;;4996797;28;1910;-69
2021/05/21 11:41:05;;;;;;;;;;;20.50;62.90;;;;;;4997416;28;1105;-68
2021/05/21 11:43:30;;;;;;;;;;;20.50;62.90;;;;;;5014942;28;1128;-69
2021/05/21 11:45:56;;;;;;;;;;;20.50;62.90;;;;;;4997238;28;1085;-69
2021/05/21 11:48:31;;;;;;;;;;;20.40;62.90;;;;;;5015054;28;1371;-70
2021/05/21 11:50:56;;;;;;;;;;;20.40;62.90;;;;;;5013424;28;1064;-69
2021/05/21 11:53:22;;;;;;;;;;;20.40;63.00;;;;;;5014476;28;1088;-70
2021/05/21 11:55:49;;;;;;;;;;;20.40;63.00;;;;;;5014481;28;1132;-70
2021/05/21 11:58:21;;;;;;;;;;;20.40;63.00;;;;;;5011040;28;1278;-70
2021/05/21 12:00:49;;;;;;;;;;;20.40;63.10;;;;;;5007359;28;1089;-70
2021/05/21 12:03:14;;;;;;;;;;;20.40;63.10;;;;;;4994410;28;1265;-70
2021/05/21 12:05:40;;;;;;;;;;;20.40;63.50;;;;;;5013952;28;1073;-70
2021/05/21 12:08:05;;;;;;;;;;;20.40;62.90;;;;;;5014544;28;1288;-69
2021/05/21 12:10:30;;;;;;;;;;;20.40;61.90;;;;;;5014469;28;1116;-70
2021/05/21 12:12:56;;;;;;;;;;;20.50;61.80;;;;;;5014161;28;1144;-69
2021/05/21 12:15:23;;;;;;;;;;;20.40;60.50;;;;;;4995536;28;1402;-70
2021/05/21 12:17:49;;;;;;;;;;;20.40;59.10;;;;;;5013899;28;1373;-70
2021/05/21 12:20:15;;;;;;;;;;;20.40;59.90;;;;;;5013540;28;1981;-70
2021/05/21 12:22:56;;;;;;;;;;;20.40;60.10;;;;;;5013907;28;1303;-70
2021/05/21 12:25:22;;;;;;;;;;;20.40;60.00;;;;;;5014116;28;1049;-70
2021/05/21 12:27:47;;;;;;;;;;;20.40;59.60;;;;;;5014079;28;1367;-70
2021/05/21 12:30:13;;;;;;;;;;;20.40;59.10;;;;;;4996733;28;1081;-70
2021/05/21 12:32:39;;;;;;;;;;;20.40;58.80;;;;;;4996068;28;1301;-69
2021/05/21 12:35:07;;;;;;;;;;;20.40;58.30;;;;;;5010467;28;1052;-69
2021/05/21 12:37:33;;;;;;;;;;;20.40;58.80;;;;;;4995495;28;1317;-69
2021/05/21 12:39:59;;;;;;;;;;;20.40;58.40;;;;;;5013666;28;1903;-69
2021/05/21 12:42:25;;;;;;;;;;;20.40;57.80;;;;;;4996384;28;1010;-69
2021/05/21 12:44:50;;;;;;;;;;;20.30;54.70;;;;;;5013336;28;1090;-69
2021/05/21 12:47:16;;;;;;;;;;;20.30;57.20;;;;;;4979491;28;1352;-69
2021/05/21 12:49:44;;;;;;;;;;;20.30;57.40;;;;;;5013565;28;1132;-69
2021/05/21 12:52:09;;;;;;;;;;;20.30;57.70;;;;;;5013862;28;1068;-69
2021/05/21 12:54:36;;;;;;;;;;;20.30;58.40;;;;;;5013335;28;1180;-69
2021/05/21 12:57:08;;;;;;;;;;;20.30;59.10;;;;;;4996140;28;1325;-69
2021/05/21 12:59:35;;;;;;;;;;;20.30;59.10;;;;;;5002192;28;1899;-69
2021/05/21 13:02:00;;;;;;;;;;;20.30;59.20;;;;;;4995812;28;1128;-69
2021/05/21 13:04:26;;;;;;;;;;;20.30;59.10;;;;;;5013333;28;1109;-69
2021/05/21 13:06:55;;;;;;;;;;;20.20;58.20;;;;;;5013154;28;1288;-69
2021/05/21 13:09:20;;;;;;;;;;;20.20;58.60;;;;;;5013195;28;1073;-69
2021/05/21 13:11:55;;;;;;;;;;;20.20;59.10;;;;;;5013437;28;1108;-69
2021/05/21 13:14:21;;;;;;;;;;;20.20;58.80;;;;;;4995185;28;1132;-69
2021/05/21 13:16:50;;;;;;;;;;;20.20;59.10;;;;;;5011937;28;1361;-69
2021/05/21 13:19:22;;;;;;;;;;;20.20;58.80;;;;;;5012950;28;1906;-69
2021/05/21 13:21:48;;;;;;;;;;;20.20;58.40;;;;;;4995582;28;1223;-69
2021/05/21 13:24:15;;;;;;;;;;;20.20;59.00;;;;;;4995936;28;1104;-69
2021/05/21 13:26:44;;;;;;;;;;;20.20;59.00;;;;;;4995864;28;1068;-69
2021/05/21 13:29:10;;;;;;;;;;;20.20;59.00;;;;;;4995543;28;1323;-69
2021/05/21 13:31:35;;;;;;;;;;;20.20;58.90;;;;;;4995918;28;1137;-69
2021/05/21 13:34:01;;;;;;;;;;;20.10;58.50;;;;;;5013515;28;1056;-69
2021/05/21 13:36:26;;;;;;;;;;;20.10;58.50;;;;;;5013201;28;1104;-69
2021/05/21 13:38:52;;;;;;;;;;;20.10;58.70;;;;;;5013046;28;1898;-69
2021/05/21 13:41:17;;;;;;;;;;;20.10;58.60;;;;;;5012793;28;1064;-69
2021/05/21 13:43:42;;;;;;;;;;;20.10;58.40;;;;;;5012776;28;1108;-68
2021/05/21 13:46:08;;;;;;;;;;;20.10;58.20;;;;;;5012569;28;1072;-68
2021/05/21 13:48:33;;;;;;;;;;;20.00;55.80;;;;;;5012652;28;1187;-71
2021/05/21 13:50:59;;;;;;;;;;;20.00;55.30;;;;;;5012679;28;1061;-71
2021/05/21 13:53:24;;;;;;;;;;;20.10;56.00;;;;;;5012792;28;1081;-72
2021/05/21 13:55:50;;;;;;;;;;;20.10;53.00;;;;;;5012908;28;1065;-72
2021/05/21 13:58:15;;;;;;;;;;;20.10;56.10;;;;;;5012524;28;1167;-71
2021/05/21 14:00:41;;;;;;;;;;;20.10;55.80;;;;;;4995125;28;1955;-71
2021/05/21 14:03:06;;;;;;;;;;;20.00;54.50;;;;;;5011405;28;1144;-72
2021/05/21 14:05:31;;;;;;;;;;;20.10;52.70;;;;;;5012499;28;1127;-69
2021/05/21 14:07:57;;;;;;;;;;;20.00;54.00;;;;;;5012647;28;1203;-70
2021/05/21 14:10:22;;;;;;;;;;;20.00;54.30;;;;;;5012731;28;1151;-70
2021/05/21 14:12:49;;;;;;;;;;;20.00;54.30;;;;;;5012459;28;1163;-70
2021/05/21 14:15:15;;;;;;;;;;;20.00;52.40;;;;;;5012520;28;1214;-70
2021/05/21 14:17:40;;;;;;;;;;;20.00;53.60;;;;;;5012869;28;1219;-70
2021/05/21 14:20:06;;;;;;;;;;;20.00;54.90;;;;;;5012099;28;1898;-70
2021/05/21 14:22:37;;;;;;;;;;;20.00;55.40;;;;;;5012223;28;1381;-70
2021/05/21 14:25:04;;;;;;;;;;;20.00;55.70;;;;;;4994815;28;1045;-71
2021/05/21 14:27:30;;;;;;;;;;;20.00;56.00;;;;;;5015326;28;1265;-70